Time;durP1;ratioP1;P1;durP2;ratioP2;P2;SDS_P1;SDS_P2;PMS_P1;PMS_P2;Temp;Humidity;BMP_temperature;BMP_pressure;BME280_temperature;BME280_humidity;BME280_pressure;Samples;Min_cycle;Max_cycle;Signal;HPM_P1;HPM_P2
2023/05/28 00:01:51;;;;;;;;;10.67;6.67;;;;;23.54;39.39;101817.88;6304693;22;45299;-74
2023/05/28 00:04:17;;;;;;;;;9.00;5.25;;;;;23.51;39.13;101811.06;6304383;22;45321;-73
2023/05/28 00:06:42;;;;;;;;;7.25;7.00;;;;;23.55;39.03;101813.41;6305080;22;45174;-73
2023/05/28 00:09:07;;;;;;;;;11.50;7.50;;;;;23.54;39.43;101809.91;6304405;22;46882;-74
2023/05/28 00:11:33;;;;;;;;;7.00;6.00;;;;;23.54;38.98;101799.28;6302769;22;45253;-74
2023/05/28 00:13:58;;;;;;;;;11.00;8.25;;;;;23.34;39.07;101764.25;6304253;22;48847;-73
2023/05/28 00:16:24;;;;;;;;;8.75;7.25;;;;;23.52;39.12;101794.13;6304667;22;45428;-74
2023/05/28 00:18:50;;;;;;;;;6.50;6.00;;;;;23.51;38.92;101783.69;6303861;22;46847;-74
2023/05/28 00:21:15;;;;;;;;;6.50;5.00;;;;;23.37;38.83;101763.88;6304600;22;45304;-74
2023/05/28 00:23:41;;;;;;;;;6.00;6.00;;;;;23.47;39.22;101783.13;6303729;22;45225;-74
2023/05/28 00:26:06;;;;;;;;;5.00;5.00;;;;;23.47;38.98;101785.00;6304643;22;45378;-74
2023/05/28 00:28:32;;;;;;;;;9.75;6.25;;;;;23.46;39.32;101780.66;6302827;22;47058;-73
2023/05/28 00:30:57;;;;;;;;;5.33;4.33;;;;;23.38;38.76;101776.19;6302840;22;45807;-74
2023/05/28 00:33:23;;;;;;;;;7.00;5.75;;;;;23.20;39.45;101740.03;6304346;22;45252;-74
2023/05/28 00:35:49;;;;;;;;;10.00;6.25;;;;;23.38;38.99;101773.53;6304411;22;45334;-74
2023/05/28 00:38:15;;;;;;;;;7.00;5.00;;;;;23.37;39.30;101777.16;6304258;22;46304;-74
2023/05/28 00:40:44;;;;;;;;;11.25;9.00;;;;;23.27;39.21;101751.63;6304080;22;45288;-73
2023/05/28 00:43:10;;;;;;;;;9.00;8.00;;;;;23.35;38.90;101769.38;6304402;22;45352;-73
2023/05/28 00:45:36;;;;;;;;;4.67;4.67;;;;;23.24;39.08;101751.13;6304159;22;45452;-74
2023/05/28 00:48:01;;;;;;;;;9.50;8.00;;;;;23.32;38.72;101772.38;6304016;22;46049;-73
2023/05/28 00:50:28;;;;;;;;;4.50;4.25;;;;;23.30;38.74;101769.06;6304157;22;45274;-74
2023/05/28 00:52:54;;;;;;;;;15.75;8.00;;;;;23.27;38.60;101775.53;6302766;22;45255;-73
2023/05/28 00:55:20;;;;;;;;;11.00;8.00;;;;;23.25;38.90;101768.72;6304694;22;45434;-74
2023/05/28 00:57:47;;;;;;;;;8.75;8.00;;;;;23.15;39.08;101755.63;6303769;22;45904;-74
2023/05/28 01:00:13;;;;;;;;;6.25;6.25;;;;;23.14;39.14;101754.78;6304471;22;45239;-74
2023/05/28 01:02:39;;;;;;;;;8.50;6.50;;;;;23.18;38.98;101769.41;6303841;22;45322;-74
2023/05/28 01:05:05;;;;;;;;;8.00;7.00;;;;;23.22;39.19;101771.69;6304419;22;45389;-74
2023/05/28 01:07:30;;;;;;;;;9.50;7.75;;;;;23.17;38.81;101761.59;6304465;22;45344;-73
2023/05/28 01:09:56;;;;;;;;;11.25;7.75;;;;;23.10;39.30;101757.94;6303876;22;45295;-73
2023/05/28 01:12:23;;;;;;;;;8.25;8.00;;;;;22.90;39.02;101726.41;6304045;22;45266;-73
2023/05/28 01:14:49;;;;;;;;;8.25;7.75;;;;;23.18;39.16;101771.22;6304079;22;45399;-73
2023/05/28 01:17:15;;;;;;;;;10.00;7.25;;;;;23.10;39.19;101755.28;6303229;22;45982;-74
2023/05/28 01:19:42;;;;;;;;;8.75;8.25;;;;;23.16;38.96;101771.38;6304344;22;45278;-74
2023/05/28 01:22:12;;;;;;;;;8.67;8.00;;;;;23.15;39.35;101764.41;6302449;22;45314;-73
2023/05/28 01:24:37;;;;;;;;;8.25;7.50;;;;;23.14;38.97;101764.56;6303732;22;45316;-73
2023/05/28 01:27:03;;;;;;;;;8.00;6.33;;;;;23.14;39.31;101767.22;6304072;22;45319;-74
2023/05/28 01:29:29;;;;;;;;;8.33;7.00;;;;;22.78;38.92;101702.84;6303959;22;45284;-73
2023/05/28 01:31:54;;;;;;;;;9.00;7.00;;;;;23.01;39.12;101744.66;6303614;22;45281;-74
2023/05/28 01:34:20;;;;;;;;;8.50;6.50;;;;;23.07;38.92;101751.97;6304144;22;45474;-74
2023/05/28 01:37:09;;;;;;;;;9.00;6.50;;;;;23.10;39.19;101761.44;6305438;22;45222;-74
2023/05/28 01:39:42;;;;;;;;;9.00;7.33;;;;;22.96;38.90;101741.66;6305153;22;45205;-74
2023/05/28 01:42:08;;;;;;;;;8.50;7.50;;;;;23.03;39.11;101758.59;6305259;22;45268;-74
2023/05/28 01:44:34;;;;;;;;;7.50;5.50;;;;;23.05;39.19;101764.59;6304811;22;45309;-74
2023/05/28 01:46:59;;;;;;;;;10.00;8.00;;;;;23.02;39.45;101759.59;6305085;22;45986;-74
2023/05/28 01:49:25;;;;;;;;;8.25;6.75;;;;;23.02;38.76;101766.72;6303594;22;45626;-74
2023/05/28 01:51:51;;;;;;;;;11.50;9.00;;;;;22.91;39.35;101749.28;6303540;22;45226;-74
2023/05/28 01:54:16;;;;;;;;;9.00;7.25;;;;;22.98;39.43;101758.25;6305454;22;45380;-74
2023/05/28 01:56:42;;;;;;;;;7.50;6.25;;;;;22.97;39.30;101767.22;6304855;22;46239;-73
2023/05/28 01:59:07;;;;;;;;;6.00;5.00;;;;;22.92;38.71;101757.09;6304855;22;45288;-74
2023/05/28 02:01:33;;;;;;;;;9.00;6.75;;;;;22.94;39.28;101764.88;6305715;22;45324;-74
2023/05/28 02:03:59;;;;;;;;;8.25;7.00;;;;;22.93;38.90;101763.22;6305005;22;45351;-74
2023/05/28 02:06:27;;;;;;;;;9.00;8.00;;;;;22.92;39.00;101765.06;6305362;22;45913;-74
2023/05/28 02:08:53;;;;;;;;;7.25;6.50;;;;;22.90;39.05;101767.03;6305010;22;45415;-73
2023/05/28 02:11:18;;;;;;;;;6.50;6.50;;;;;22.87;39.07;101767.38;6304876;22;45204;-74
2023/05/28 02:13:44;;;;;;;;;11.00;7.00;;;;;22.75;38.63;101742.97;6304723;22;45231;-74
2023/05/28 02:16:10;;;;;;;;;11.00;6.00;;;;;22.78;38.78;101742.66;6304963;22;46928;-73
2023/05/28 02:18:36;;;;;;;;;6.75;6.50;;;;;22.85;39.12;101761.38;6305122;22;45162;-73
2023/05/28 02:21:03;;;;;;;;;9.75;7.50;;;;;22.50;38.71;101703.09;6305110;22;45398;-74
2023/05/28 02:23:28;;;;;;;;;7.00;5.75;;;;;22.77;38.95;101740.16;6305439;22;45328;-73
2023/05/28 02:25:53;;;;;;;;;6.00;6.00;;;;;22.80;39.26;101751.25;6305167;22;45267;-74
2023/05/28 02:28:19;;;;;;;;;10.25;6.75;;;;;22.80;38.79;101750.44;6302722;22;45301;-74
2023/05/28 02:30:44;;;;;;;;;9.25;7.00;;;;;22.78;38.69;101747.94;6305267;22;45345;-73
2023/05/28 02:33:09;;;;;;;;;9.00;6.00;;;;;22.78;38.87;101761.22;6305375;22;45385;-73
2023/05/28 02:35:35;;;;;;;;;6.00;6.00;;;;;22.72;39.19;101745.94;6304863;22;46044;-74
2023/05/28 02:38:00;;;;;;;;;8.25;6.75;;;;;22.77;39.24;101756.09;6305375;22;45227;-74
2023/05/28 02:40:26;;;;;;;;;8.00;6.25;;;;;22.76;38.64;101755.25;6305076;22;45399;-73
2023/05/28 02:42:51;;;;;;;;;6.67;6.00;;;;;22.76;38.85;101752.59;6305052;22;45212;-74
2023/05/28 02:45:16;;;;;;;;;8.75;8.50;;;;;22.74;38.49;101757.25;6304760;22;45304;-73
2023/05/28 02:47:42;;;;;;;;;8.75;7.00;;;;;22.74;38.53;101759.91;6305163;22;45288;-73
2023/05/28 02:50:07;;;;;;;;;7.00;6.00;;;;;22.61;38.49;101741.75;6305238;22;45355;-73
2023/05/28 02:52:33;;;;;;;;;9.00;7.00;;;;;22.73;38.38;101752.91;6305490;22;45286;-73
2023/05/28 02:54:58;;;;;;;;;9.00;6.25;;;;;22.73;38.79;101763.53;6304985;22;45314;-73
2023/05/28 02:57:24;;;;;;;;;6.25;5.00;;;;;22.72;38.77;101760.03;6304835;22;45250;-74
2023/05/28 02:59:49;;;;;;;;;6.00;5.00;;;;;22.72;38.39;101761.84;6303381;22;45337;-73
2023/05/28 03:02:14;;;;;;;;;6.00;5.75;;;;;22.61;38.90;101745.22;6305232;22;45400;-74
2023/05/28 03:04:40;;;;;;;;;13.25;6.25;;;;;22.46;38.76;101722.97;6305063;22;46015;-74
2023/05/28 03:07:05;;;;;;;;;9.25;8.00;;;;;22.70;38.29;101767.34;6305264;22;45292;-73
2023/05/28 03:09:30;;;;;;;;;14.75;6.00;;;;;22.70;38.52;101769.16;6304815;22;45202;-74
2023/05/28 03:11:56;;;;;;;;;8.50;6.00;;;;;22.67;38.15;101764.13;6304354;22;45410;-74
2023/05/28 03:14:21;;;;;;;;;5.25;5.25;;;;;22.53;38.40;101745.22;6305069;22;45379;-75
2023/05/28 03:16:46;;;;;;;;;10.25;8.00;;;;;22.65;38.41;101772.25;6304785;22;45249;-73
2023/05/28 03:19:12;;;;;;;;;7.00;7.00;;;;;22.54;38.29;101752.16;6305358;22;45371;-73
2023/05/28 03:21:37;;;;;;;;;9.50;8.00;;;;;22.55;38.31;101758.31;6304798;22;45261;-74
2023/05/28 03:24:03;;;;;;;;;12.25;7.00;;;;;22.61;38.70;101769.09;6305041;22;45863;-74
2023/05/28 03:26:28;;;;;;;;;7.00;6.00;;;;;22.49;38.75;101757.13;6304264;22;45357;-73
2023/05/28 03:28:54;;;;;;;;;9.75;8.25;;;;;22.57;38.30;101767.75;6305064;22;45272;-74
2023/05/28 03:31:20;;;;;;;;;9.50;7.50;;;;;22.53;38.45;101766.44;6304874;22;45281;-74
2023/05/28 03:33:45;;;;;;;;;6.50;5.75;;;;;22.54;38.40;101767.25;6304822;22;45980;-74
2023/05/28 03:36:11;;;;;;;;;10.25;8.00;;;;;22.55;38.27;101774.22;6304508;22;45299;-73
2023/05/28 03:38:36;;;;;;;;;8.50;6.25;;;;;22.51;38.64;101766.59;6304638;22;45772;-74
2023/05/28 03:41:01;;;;;;;;;10.50;8.75;;;;;22.44;38.40;101754.13;6304231;22;45415;-74
2023/05/28 03:43:27;;;;;;;;;10.00;7.50;;;;;22.33;38.28;101734.06;6304082;22;46169;-74
2023/05/28 03:45:52;;;;;;;;;9.75;8.50;;;;;22.37;38.35;101746.84;6304942;22;45303;-74
2023/05/28 03:48:18;;;;;;;;;7.00;5.50;;;;;22.34;38.31;101747.16;6304610;22;45225;-74
2023/05/28 03:50:43;;;;;;;;;9.50;9.50;;;;;22.39;38.29;101747.50;6305230;22;45353;-74
2023/05/28 03:53:09;;;;;;;;;13.75;8.25;;;;;22.37;38.42;101753.94;6304275;22;45920;-73
2023/05/28 03:55:38;;;;;;;;;13.75;9.25;;;;;22.34;38.34;101748.97;6304151;22;45283;-74
2023/05/28 03:58:04;;;;;;;;;7.50;6.75;;;;;22.42;38.57;101764.06;6303995;22;45283;-74
2023/05/28 04:00:31;;;;;;;;;8.50;8.00;;;;;22.39;38.11;101760.75;6304432;22;45236;-73
2023/05/28 04:02:56;;;;;;;;;7.50;6.00;;;;;22.31;38.53;101750.13;6304360;22;46321;-74
2023/05/28 04:05:21;;;;;;;;;11.00;7.25;;;;;22.31;38.06;101742.16;6304926;22;45248;-74
2023/05/28 04:07:46;;;;;;;;;8.50;8.50;;;;;22.35;37.96;101750.63;6304920;22;45200;-74
2023/05/28 04:10:12;;;;;;;;;7.50;7.00;;;;;22.36;38.36;101758.41;6304744;22;45560;-74
2023/05/28 04:12:37;;;;;;;;;12.75;8.75;;;;;22.39;37.84;101765.22;6304534;22;46093;-74
2023/05/28 04:15:03;;;;;;;;;7.50;6.00;;;;;22.40;37.84;101758.94;6304669;22;45245;-74
2023/05/28 04:17:29;;;;;;;;;10.75;6.00;;;;;22.39;37.99;101754.63;6304648;22;45290;-74
2023/05/28 04:19:54;;;;;;;;;10.25;8.75;;;;;22.41;38.26;101763.22;6304326;22;45423;-74
2023/05/28 04:22:21;;;;;;;;;7.50;7.50;;;;;22.43;38.18;101757.78;6304631;22;45279;-74
2023/05/28 04:24:47;;;;;;;;;8.50;7.00;;;;;22.39;37.85;101747.50;6303912;22;45346;-74
2023/05/28 04:27:12;;;;;;;;;11.50;9.25;;;;;22.42;38.22;101754.31;6304464;22;45275;-74
2023/05/28 04:29:38;;;;;;;;;9.75;7.00;;;;;22.34;38.20;101748.97;6304819;22;45287;-74
2023/05/28 04:32:04;;;;;;;;;9.25;8.25;;;;;22.42;37.60;101751.66;6304670;22;46069;-74
2023/05/28 04:34:32;;;;;;;;;7.25;7.00;;;;;22.39;37.91;101747.50;6304396;22;45398;-74
2023/05/28 04:36:58;;;;;;;;;10.50;7.25;;;;;22.44;37.64;101754.13;6304275;22;45296;-74
2023/05/28 04:39:23;;;;;;;;;12.00;8.00;;;;;22.44;38.07;101754.97;6304360;22;45399;-73
2023/05/28 04:41:49;;;;;;;;;9.75;7.00;;;;;22.30;38.28;101737.88;6304469;22;45616;-74
2023/05/28 04:44:15;;;;;;;;;7.00;7.00;;;;;22.43;37.62;101763.91;6304444;22;45246;-74
2023/05/28 04:46:43;;;;;;;;;10.00;7.50;;;;;22.43;38.34;101752.50;6304791;22;45169;-73
2023/05/28 04:49:10;;;;;;;;;9.50;7.50;;;;;22.42;37.84;101758.78;6304238;22;45442;-74
2023/05/28 04:51:36;;;;;;;;;9.00;6.00;;;;;22.40;37.79;101756.28;6303738;22;46007;-74
2023/05/28 04:54:02;;;;;;;;;6.50;6.50;;;;;22.39;38.17;101757.28;6303612;22;45171;-73
2023/05/28 04:56:28;;;;;;;;;7.50;6.50;;;;;22.43;37.83;101761.25;6304520;22;45376;-73
2023/05/28 04:58:53;;;;;;;;;8.00;8.00;;;;;22.44;38.31;101762.09;6304586;22;45272;-74
2023/05/28 05:01:19;;;;;;;;;8.00;5.75;;;;;22.43;37.67;101766.56;6304615;22;45336;-74
2023/05/28 05:03:44;;;;;;;;;9.25;7.00;;;;;22.35;37.51;101754.09;6303904;22;45206;-73
2023/05/28 05:06:11;;;;;;;;;10.75;7.00;;;;;22.43;37.69;101766.56;6304713;22;45229;-74
2023/05/28 05:08:36;;;;;;;;;6.25;6.25;;;;;22.43;37.74;101769.19;6303484;22;45509;-74
2023/05/28 05:11:04;;;;;;;;;9.25;7.00;;;;;22.45;37.71;101775.19;6303603;22;46885;-74
2023/05/28 05:13:29;;;;;;;;;4.50;4.50;;;;;22.46;38.15;101779.50;6304337;22;45281;-74
2023/05/28 05:15:55;;;;;;;;;11.75;10.00;;;;;22.41;37.94;101768.53;6303898;22;45308;-74
2023/05/28 05:18:20;;;;;;;;;9.50;8.00;;;;;22.50;38.16;101777.38;6304511;22;45221;-73
2023/05/28 05:20:45;;;;;;;;;6.75;6.00;;;;;22.51;38.23;101779.84;6304363;22;45284;-74
2023/05/28 05:23:11;;;;;;;;;6.50;6.00;;;;;22.54;37.75;101781.34;6303523;22;45702;-74
2023/05/28 05:25:36;;;;;;;;;6.50;5.75;;;;;22.57;37.75;101780.19;6304088;22;45414;-74
2023/05/28 05:28:01;;;;;;;;;11.00;8.00;;;;;22.50;37.92;101766.75;6304409;22;45257;-74
2023/05/28 05:30:27;;;;;;;;;12.00;8.25;;;;;22.61;37.88;101781.53;6304238;22;46133;-74
2023/05/28 05:32:52;;;;;;;;;6.00;6.00;;;;;22.63;37.91;101787.50;6304383;22;45196;-73
2023/05/28 05:35:19;;;;;;;;;11.25;8.00;;;;;22.67;37.81;101790.66;6304121;22;45345;-73
2023/05/28 05:37:44;;;;;;;;;8.25;8.25;;;;;22.68;37.83;101787.88;6303551;22;45479;-74
2023/05/28 05:40:10;;;;;;;;;7.75;7.75;;;;;22.71;37.69;101789.38;6303978;22;48345;-73
2023/05/28 05:42:36;;;;;;;;;9.50;7.00;;;;;22.73;37.30;101780.28;6304059;22;45162;-74
2023/05/28 05:45:01;;;;;;;;;8.75;6.50;;;;;22.74;37.59;101779.28;6303542;22;45289;-73
2023/05/28 05:47:26;;;;;;;;;6.25;6.25;;;;;22.80;37.62;101792.88;6304289;22;45388;-73
2023/05/28 05:49:52;;;;;;;;;10.00;6.00;;;;;22.83;37.94;101792.56;6303447;22;46598;-73
2023/05/28 05:52:17;;;;;;;;;7.25;7.25;;;;;22.85;38.08;101794.06;6303536;22;45276;-74
2023/05/28 05:54:42;;;;;;;;;10.50;7.75;;;;;22.78;38.00;101771.00;6304124;22;45190;-74
2023/05/28 05:57:08;;;;;;;;;8.75;5.75;;;;;22.91;37.62;101781.97;6304128;22;45465;-74
2023/05/28 05:59:34;;;;;;;;;6.50;6.25;;;;;22.93;37.37;101779.13;6303730;22;46019;-74
2023/05/28 06:02:00;;;;;;;;;7.75;5.00;;;;;22.99;37.60;101788.28;6303660;22;45257;-74
2023/05/28 06:04:31;;;;;;;;;9.00;5.50;;;;;23.01;37.82;101783.63;6301917;22;45290;-75
2023/05/28 06:06:57;;;;;;;;;13.75;9.00;;;;;23.00;37.76;101780.16;6303582;22;45294;-74
2023/05/28 06:09:23;;;;;;;;;8.75;7.25;;;;;22.91;37.90;101765.22;6303428;22;46198;-74
2023/05/28 06:11:48;;;;;;;;;6.67;5.33;;;;;22.96;37.55;101770.84;6303472;22;45357;-73
2023/05/28 06:14:14;;;;;;;;;7.50;5.75;;;;;23.07;37.27;101778.50;6301840;22;45303;-74
2023/05/28 06:16:39;;;;;;;;;12.25;7.25;;;;;23.02;37.49;101780.81;6304117;22;45438;-73
2023/05/28 06:19:04;;;;;;;;;9.00;6.00;;;;;23.11;37.27;101788.81;6303373;22;46026;-74
2023/05/28 06:21:30;;;;;;;;;9.00;9.00;;;;;23.12;37.92;101788.63;6303937;22;45280;-73
2023/05/28 06:23:55;;;;;;;;;7.75;7.50;;;;;23.14;37.53;101785.81;6305329;22;45262;-74
2023/05/28 06:26:22;;;;;;;;;10.00;7.50;;;;;23.12;37.76;101779.81;6305015;22;45383;-74
2023/05/28 06:28:47;;;;;;;;;10.75;8.25;;;;;23.18;37.71;101784.50;6304938;22;46954;-74
2023/05/28 06:31:12;;;;;;;;;9.75;9.00;;;;;23.21;37.92;101778.03;6304356;22;50370;-74
2023/05/28 06:33:38;;;;;;;;;10.25;8.00;;;;;23.19;37.33;101778.16;6305280;22;45249;-73
2023/05/28 06:36:03;;;;;;;;;10.00;6.25;;;;;23.24;37.83;101785.63;6305103;22;45345;-74
2023/05/28 06:38:29;;;;;;;;;6.75;6.75;;;;;23.24;37.72;101785.63;6305207;22;46003;-73
2023/05/28 06:40:54;;;;;;;;;8.50;8.50;;;;;23.27;37.55;101790.63;6304838;22;45229;-74
2023/05/28 06:43:20;;;;;;;;;11.00;8.00;;;;;23.26;37.07;101788.97;6304817;22;45171;-74
2023/05/28 06:45:45;;;;;;;;;13.25;10.00;;;;;23.31;37.30;101793.78;6304945;22;45452;-74
2023/05/28 06:48:11;;;;;;;;;12.25;10.00;;;;;23.32;37.04;101793.59;6304934;22;45240;-73
2023/05/28 06:50:36;;;;;;;;;14.25;9.00;;;;;23.34;36.98;101796.13;6304310;22;45285;-74
2023/05/28 06:53:02;;;;;;;;;14.50;8.25;;;;;23.29;37.11;101781.50;6303775;22;45465;-74
2023/05/28 06:55:27;;;;;;;;;8.50;8.25;;;;;23.36;37.55;101789.63;6304643;22;45272;-73
2023/05/28 06:57:52;;;;;;;;;10.00;9.50;;;;;23.32;37.08;101782.16;6304394;22;45877;-74
2023/05/28 07:00:18;;;;;;;;;11.25;9.25;;;;;23.29;37.39;101776.19;6304299;22;45336;-74
2023/05/28 07:02:45;;;;;;;;;8.25;8.25;;;;;23.43;36.98;101784.47;6304049;22;45297;-73
2023/05/28 07:05:10;;;;;;;;;10.50;8.75;;;;;23.46;37.46;101784.16;6304261;22;45451;-74
2023/05/28 07:07:36;;;;;;;;;14.50;7.00;;;;;23.48;36.75;101795.44;6304811;22;45944;-74
2023/05/28 07:10:02;;;;;;;;;13.50;9.75;;;;;23.49;36.96;101786.50;6304603;22;45312;-73
2023/05/28 07:12:28;;;;;;;;;10.25;8.50;;;;;23.14;37.07;101736.19;6304881;22;45115;-73
2023/05/28 07:14:54;;;;;;;;;9.00;7.00;;;;;23.54;37.06;101796.63;6304769;22;45422;-74
2023/05/28 07:17:20;;;;;;;;;12.25;9.50;;;;;23.56;36.84;101797.28;6304738;22;46411;-73
2023/05/28 07:19:46;;;;;;;;;10.25;8.25;;;;;23.58;36.74;101797.09;6304155;22;45287;-74
2023/05/28 07:22:11;;;;;;;;;10.00;9.00;;;;;23.57;37.30;101787.50;6304710;22;45449;-73
2023/05/28 07:24:36;;;;;;;;;9.25;9.00;;;;;23.62;37.22;101793.13;6302793;22;45238;-74
2023/05/28 07:27:02;;;;;;;;;10.00;8.00;;;;;23.63;36.94;101792.97;6304850;22;45795;-74
2023/05/28 07:29:28;;;;;;;;;10.50;7.75;;;;;23.62;36.99;101786.00;6304528;22;45383;-74
2023/05/28 07:31:53;;;;;;;;;13.25;9.50;;;;;23.68;37.20;101784.47;6302902;22;45494;-74
2023/05/28 07:34:18;;;;;;;;;9.75;8.75;;;;;23.71;36.65;101799.25;6304013;22;45284;-73
2023/05/28 07:36:43;;;;;;;;;13.00;9.67;;;;;23.73;36.71;101798.09;6304733;22;46518;-74
2023/05/28 07:39:10;;;;;;;;;8.75;8.00;;;;;23.75;36.75;101792.63;6304610;22;45323;-73
2023/05/28 07:41:35;;;;;;;;;11.00;8.00;;;;;23.77;37.03;101793.28;6304877;22;45234;-73
2023/05/28 07:44:01;;;;;;;;;11.25;9.75;;;;;23.77;37.06;101781.81;6304779;22;45256;-73
2023/05/28 07:46:26;;;;;;;;;11.75;8.75;;;;;23.79;37.06;101790.44;6304649;22;45268;-73
2023/05/28 07:48:52;;;;;;;;;7.50;7.00;;;;;23.79;36.76;101783.31;6302526;22;45337;-73
2023/05/28 07:51:17;;;;;;;;;10.00;6.33;;;;;23.78;37.30;101784.31;6305063;22;45206;-74
2023/05/28 07:53:43;;;;;;;;;9.75;8.00;;;;;23.83;36.81;101786.47;6304682;22;45245;-73
2023/05/28 07:56:08;;;;;;;;;10.00;8.33;;;;;23.85;37.39;101789.78;6303983;22;46111;-73
2023/05/28 07:58:33;;;;;;;;;8.25;7.75;;;;;23.83;37.47;101778.50;6304866;22;45235;-75
2023/05/28 08:00:59;;;;;;;;;9.50;9.00;;;;;23.80;37.27;101762.88;6305094;22;45265;-74
2023/05/28 08:03:27;;;;;;;;;6.75;6.75;;;;;23.93;37.19;101783.59;6304173;22;45130;-74
2023/05/28 08:05:52;;;;;;;;;9.25;8.25;;;;;23.93;37.27;101775.63;6304776;22;45273;-73
2023/05/28 08:08:18;;;;;;;;;4.50;4.00;;;;;23.84;37.20;101761.53;6304431;22;45249;-73
2023/05/28 08:10:43;;;;;;;;;7.75;7.75;;;;;23.94;36.83;101764.00;6304910;22;45313;-74
2023/05/28 08:13:08;;;;;;;;;11.25;9.50;;;;;24.06;37.28;101777.75;6304331;22;45283;-73
2023/05/28 08:15:36;;;;;;;;;8.00;8.00;;;;;24.05;37.45;101774.25;6304467;22;48226;-70
2023/05/28 08:18:02;;;;;;;;;11.75;9.00;;;;;24.02;37.41;101757.84;6303948;22;45312;-70
2023/05/28 08:20:29;;;;;;;;;9.75;7.00;;;;;24.09;37.15;101755.31;6304517;22;45172;-70
2023/05/28 08:22:54;;;;;;;;;11.67;8.00;;;;;24.15;37.36;101770.56;6304154;22;45207;-70
2023/05/28 08:25:20;;;;;;;;;7.50;6.50;;;;;24.06;37.41;101751.16;6304257;22;46516;-69
2023/05/28 08:27:45;;;;;;;;;9.00;7.00;;;;;24.17;37.39;101761.41;6304329;22;45230;-70
2023/05/28 08:30:11;;;;;;;;;10.50;9.00;;;;;24.16;37.13;101761.59;6303838;22;45241;-71
2023/05/28 08:32:37;;;;;;;;;11.00;8.75;;;;;24.25;37.62;101768.53;6304046;22;45404;-71
2023/05/28 08:35:03;;;;;;;;;9.67;9.67;;;;;24.25;37.39;101755.22;6304169;22;46217;-73
2023/05/28 08:37:29;;;;;;;;;10.00;7.67;;;;;24.24;37.25;101737.63;6304505;22;45283;-74
2023/05/28 08:39:55;;;;;;;;;9.25;7.50;;;;;24.45;37.76;101754.84;6304692;22;45276;-72
2023/05/28 08:42:20;;;;;;;;;10.25;7.00;;;;;24.47;37.32;101747.50;6304067;22;45425;-72
2023/05/28 08:44:46;;;;;;;;;10.75;9.25;;;;;24.58;37.22;101754.28;6302178;22;45978;-72
2023/05/28 08:47:12;;;;;;;;;14.50;13.75;;;;;24.62;37.11;101747.59;6303119;22;45338;-72
2023/05/28 08:49:41;;;;;;;;;12.25;9.75;;;;;24.68;37.15;101746.06;6304034;22;45222;-73
2023/05/28 08:52:08;;;;;;;;;14.50;10.00;;;;;24.79;36.96;101760.81;6303974;22;45214;-72
2023/05/28 08:54:34;;;;;;;;;10.00;9.33;;;;;24.85;36.81;101765.41;6303612;22;47441;-72
2023/05/28 08:57:00;;;;;;;;;15.00;11.00;;;;;24.93;36.56;101750.41;6304305;22;45279;-73
2023/05/28 08:59:27;;;;;;;;;10.50;10.50;;;;;24.96;36.47;101752.69;6302029;22;45284;-73
2023/05/28 09:01:52;;;;;;;;;11.50;10.25;;;;;25.04;36.62;101749.16;6304172;22;45447;-73
2023/05/28 09:04:18;;;;;;;;;12.00;11.50;;;;;25.05;36.35;101746.34;6303944;22;45281;-73
2023/05/28 09:06:43;;;;;;;;;11.50;10.00;;;;;25.08;36.14;101734.50;6304113;22;45885;-71
2023/05/28 09:09:09;;;;;;;;;9.25;8.75;;;;;25.13;35.83;101737.44;6303403;22;45319;-70
2023/05/28 09:11:34;;;;;;;;;14.67;10.67;;;;;25.18;35.87;101735.06;6303855;22;45477;-70
2023/05/28 09:14:08;;;;;;;;;8.25;7.00;;;;;25.24;35.99;101741.50;6303031;22;46326;-69
2023/05/28 09:16:34;;;;;;;;;11.33;9.33;;;;;25.22;36.08;101727.53;6303211;22;45230;-73
2023/05/28 09:19:04;;;;;;;;;8.25;8.25;;;;;25.32;35.88;101739.78;6302848;22;45301;-75
2023/05/28 09:21:30;;;;;;;;;10.25;10.25;;;;;25.29;36.09;101730.31;6303081;22;45357;-78
2023/05/28 09:23:55;;;;;;;;;15.33;11.33;;;;;25.37;36.01;101729.41;6303054;22;46274;-73
2023/05/28 09:26:21;;;;;;;;;8.67;7.00;;;;;25.41;36.29;101730.69;6304011;22;45272;-72
2023/05/28 09:28:48;;;;;;;;;10.33;8.00;;;;;25.42;36.18;101729.69;6301888;22;45392;-71
2023/05/28 09:31:14;;;;;;;;;9.33;8.33;;;;;25.42;36.01;101721.69;6302169;22;45402;-70
2023/05/28 09:33:44;;;;;;;;;10.67;8.33;;;;;25.51;35.94;101730.41;6303331;22;46095;-72
2023/05/28 09:36:10;;;;;;;;;10.33;8.33;;;;;25.47;35.77;101721.97;6304054;22;45308;-74
2023/05/28 09:38:39;;;;;;;;;12.00;10.00;;;;;25.56;35.69;101716.53;6303452;22;45245;-71
2023/05/28 09:41:05;;;;;;;;;12.67;9.33;;;;;25.57;35.53;101718.22;6302254;22;45206;-71
2023/05/28 09:43:30;;;;;;;;;11.00;8.00;;;;;25.53;35.41;101709.75;6301103;22;46550;-73
2023/05/28 09:46:09;;;;;;;;;11.33;7.33;;;;;25.62;35.45;101713.16;6303823;22;45208;-78
2023/05/28 09:48:35;;;;;;;;;8.00;6.67;;;;;25.66;35.46;101714.44;6303729;22;45288;-74
2023/05/28 09:51:03;;;;;;;;;13.00;10.00;;;;;25.68;35.37;101714.28;6303830;22;45364;-73
2023/05/28 09:53:33;;;;;;;;;9.00;8.00;;;;;25.61;35.46;101699.00;6304006;22;45313;-73
2023/05/28 09:55:59;;;;;;;;;8.00;6.75;;;;;25.69;35.27;101718.56;6304320;22;45307;-73
2023/05/28 09:58:31;;;;;;;;;10.67;8.00;;;;;25.67;35.25;101715.28;6304840;22;45237;-73
2023/05/28 10:01:00;;;;;;;;;9.00;8.00;;;;;25.72;35.37;101710.22;6303337;22;45275;-74
2023/05/28 10:03:33;;;;;;;;;11.33;10.00;;;;;25.67;35.54;101701.94;6305202;22;46216;-73
2023/05/28 10:06:03;;;;;;;;;12.67;10.00;;;;;25.73;35.33;101709.22;6305199;22;45327;-73
2023/05/28 10:08:31;;;;;;;;;9.33;6.67;;;;;25.73;35.11;101702.09;6303457;22;45356;-74
2023/05/28 10:10:56;;;;;;;;;9.00;9.00;;;;;25.73;35.54;101695.88;6304899;22;45439;-76
2023/05/28 10:13:22;;;;;;;;;8.67;7.33;;;;;25.77;35.07;101702.53;6304438;22;46142;-74
2023/05/28 10:15:48;;;;;;;;;9.00;8.67;;;;;25.72;35.74;101691.56;6303344;22;45711;-74
2023/05/28 10:18:14;;;;;;;;;10.67;8.33;;;;;25.75;35.07;101701.88;6305414;22;45284;-75
2023/05/28 10:20:43;;;;;;;;;14.33;8.00;;;;;25.68;35.11;101682.28;6305286;22;45516;-74
2023/05/28 10:23:09;;;;;;;;;10.67;9.67;;;;;25.83;35.44;101715.13;6304588;22;46587;-74
2023/05/28 10:25:35;;;;;;;;;14.00;9.00;;;;;25.83;35.44;101707.13;6304756;22;45248;-74
2023/05/28 10:28:02;;;;;;;;;9.33;6.00;;;;;25.78;35.44;101698.84;6304452;22;45210;-74
2023/05/28 10:30:37;;;;;;;;;9.33;8.00;;;;;25.78;35.99;101703.34;6305039;22;45284;-75
2023/05/28 10:33:30;;;;;;;;;9.00;9.00;;;;;25.81;35.57;101703.81;6304999;22;46427;-81
2023/05/28 10:35:58;;;;;;;;;8.00;8.00;;;;;25.79;35.37;101691.69;6299395;22;45268;-74
2023/05/28 10:38:25;;;;;;;;;9.33;9.00;;;;;25.83;35.66;101690.28;6305384;22;45220;-73
2023/05/28 10:40:51;;;;;;;;;9.67;6.67;;;;;25.82;35.42;101700.13;6305153;22;45467;-74
2023/05/28 10:43:38;;;;;;;;;9.33;7.67;;;;;25.84;35.54;101698.09;6305077;22;45927;-74
2023/05/28 10:46:23;;;;;;;;;9.67;9.00;;;;;25.84;35.98;101692.75;6305394;22;45220;-74
2023/05/28 10:49:18;;;;;;;;;10.33;9.67;;;;;25.80;35.71;101690.66;6282436;22;45288;-74
2023/05/28 10:51:56;;;;;;;;;8.67;8.33;;;;;25.83;35.73;101699.13;6305343;22;45263;-74
2023/05/28 10:54:24;;;;;;;;;14.50;9.50;;;;;25.82;35.61;101709.94;6304599;22;46479;-75
2023/05/28 10:57:08;;;;;;;;;6.00;6.00;;;;;25.74;35.37;101685.06;6304348;22;45352;-73
2023/05/28 10:59:48;;;;;;;;;9.67;8.00;;;;;25.79;34.82;101700.50;6305326;22;45270;-74
2023/05/28 11:02:27;;;;;;;;;9.00;7.33;;;;;25.72;34.79;101683.56;6304539;22;45585;-73
2023/05/28 11:04:55;;;;;;;;;7.33;7.00;;;;;25.75;34.59;101685.91;6305075;22;46749;-74
2023/05/28 11:07:22;;;;;;;;;8.67;8.33;;;;;25.75;34.71;101693.88;6304242;22;45211;-72
2023/05/28 11:09:50;;;;;;;;;7.33;7.33;;;;;25.77;34.97;101685.69;6304429;22;45242;-73
2023/05/28 11:12:15;;;;;;;;;9.00;7.00;;;;;25.70;34.18;101678.44;6304678;22;45219;-73
2023/05/28 11:14:40;;;;;;;;;7.67;7.33;;;;;25.70;34.78;101675.75;6304286;22;45264;-74
2023/05/28 11:17:15;;;;;;;;;10.00;7.33;;;;;25.71;34.54;101672.06;6305086;22;45331;-73
2023/05/28 11:19:48;;;;;;;;;10.33;6.33;;;;;25.77;34.95;101675.88;6305181;22;45178;-74